createdAt,value
2018-05-11T00:02:03.013Z,6.07
2018-05-11T00:04:53.505Z,4.17
2018-05-11T00:07:23.871Z,8.57
2018-05-11T00:09:54.173Z,4.53
2018-05-11T00:12:24.480Z,5.67
2018-05-11T00:15:01.001Z,5.43
2018-05-11T00:17:32.103Z,8.67
2018-05-11T00:20:02.437Z,7.47
2018-05-11T00:22:32.812Z,8.93
2018-05-11T00:25:03.923Z,6.07
2018-05-11T00:27:34.282Z,6.97
2018-05-11T00:30:05.437Z,2.97
2018-05-11T00:32:35.778Z,8.03
2018-05-11T00:35:06.179Z,6.00
2018-05-11T00:37:58.633Z,5.90
2018-05-11T00:40:28.980Z,8.13
2018-05-11T00:43:18.444Z,4.50
2018-05-11T00:45:49.055Z,4.77
2018-05-11T00:48:20.180Z,4.43
2018-05-11T00:50:51.304Z,5.03
2018-05-11T00:53:21.667Z,4.20
2018-05-11T00:55:52.772Z,2.50
2018-05-11T00:58:23.133Z,5.83
2018-05-11T01:00:54.241Z,5.10
2018-05-11T01:03:24.807Z,7.67
2018-05-11T01:05:55.174Z,5.07
2018-05-11T01:08:27.557Z,4.07
2018-05-11T01:10:59.964Z,5.40
2018-05-11T01:13:31.098Z,10.93
2018-05-11T01:16:01.466Z,5.00
2018-05-11T01:18:31.808Z,8.67
2018-05-11T01:21:06.275Z,5.43
2018-05-11T01:23:36.626Z,6.87
2018-05-11T01:26:07.732Z,5.23
2018-05-11T01:28:40.316Z,3.57
2018-05-11T01:31:10.656Z,4.77
2018-05-11T01:33:41.765Z,5.33
2018-05-11T01:36:12.142Z,5.77
2018-05-11T01:38:43.245Z,6.23
2018-05-11T01:41:14.376Z,7.23
2018-05-11T01:43:46.784Z,6.23
2018-05-11T01:46:17.127Z,4.10
2018-05-11T01:48:47.555Z,5.37
2018-05-11T01:51:17.801Z,4.30
2018-05-11T01:53:48.139Z,4.23
2018-05-11T01:56:18.482Z,6.30
2018-05-11T01:58:48.875Z,5.73
2018-05-11T02:01:19.240Z,3.90
2018-05-11T02:03:49.576Z,5.97
2018-05-11T02:06:19.945Z,5.27
2018-05-11T02:08:50.309Z,5.37
2018-05-11T02:11:26.827Z,6.83
2018-05-11T02:13:57.955Z,5.27
2018-05-11T02:16:31.107Z,6.77
2018-05-11T02:19:06.593Z,5.73
2018-05-11T02:21:36.953Z,4.70
2018-05-11T02:26:52.550Z,8.87
2018-05-11T02:29:23.931Z,4.83
2018-05-11T02:31:54.295Z,5.37
2018-05-11T02:34:25.432Z,8.60
2018-05-11T02:36:55.797Z,6.60
2018-05-11T02:39:26.150Z,4.20
2018-05-11T02:42:16.894Z,5.70
2018-05-11T02:44:48.003Z,6.60
2018-05-11T02:47:19.329Z,6.93
2018-05-11T02:49:50.677Z,4.93
2018-05-11T02:52:23.078Z,5.13
2018-05-11T02:54:57.548Z,5.43
2018-05-11T02:57:28.893Z,3.27
2018-05-11T03:00:00.001Z,5.30
2018-05-11T03:02:30.318Z,3.83
2018-05-11T03:05:00.648Z,6.33
2018-05-11T03:07:30.981Z,4.57
2018-05-11T03:10:01.362Z,4.33
2018-05-11T03:12:31.707Z,6.93
2018-05-11T03:15:02.048Z,6.13
2018-05-11T03:17:32.416Z,8.77
2018-05-11T03:20:03.544Z,5.10
2018-05-11T03:22:33.886Z,5.40
2018-05-11T03:25:05.030Z,6.67
2018-05-11T03:27:36.128Z,6.37
2018-05-11T03:30:07.259Z,3.90
2018-05-11T03:32:57.742Z,5.77
2018-05-11T03:35:33.215Z,6.13
2018-05-11T03:38:03.572Z,4.67
2018-05-11T03:40:34.671Z,5.80
2018-05-11T03:43:05.039Z,5.27
2018-05-11T03:45:36.167Z,5.57
2018-05-11T03:48:06.499Z,5.90
2018-05-11T03:50:36.794Z,5.00
2018-05-11T03:53:28.580Z,5.03
2018-05-11T03:55:58.914Z,5.40
2018-05-11T03:58:29.242Z,2.80
2018-05-11T04:00:59.574Z,6.53
2018-05-11T04:04:24.432Z,5.97
2018-05-11T04:07:49.667Z,6.43
2018-05-11T04:10:20.769Z,5.00
2018-05-11T04:12:51.106Z,6.00
2018-05-11T04:15:21.472Z,5.87
2018-05-11T04:17:51.771Z,7.13
2018-05-11T04:20:22.111Z,5.63
2018-05-11T04:22:52.744Z,5.60
2018-05-11T04:25:23.843Z,7.50
2018-05-11T04:27:54.169Z,9.13
2018-05-11T04:30:24.523Z,9.63
2018-05-11T04:32:55.616Z,6.60
2018-05-11T04:35:32.108Z,5.70
2018-05-11T04:38:02.456Z,8.07
2018-05-11T04:40:32.801Z,9.80
2018-05-11T04:43:03.171Z,9.57
2018-05-11T04:45:54.928Z,11.47
2018-05-11T04:48:25.264Z,8.70
2018-05-11T04:50:56.385Z,8.90
2018-05-11T04:53:26.722Z,9.43
2018-05-11T04:55:57.074Z,7.67
2018-05-11T04:58:28.199Z,5.73
2018-05-11T05:00:59.305Z,6.30
2018-05-11T05:03:29.660Z,8.27
2018-05-11T05:06:00.013Z,8.10
2018-05-11T05:08:31.128Z,7.70
2018-05-11T05:11:01.499Z,8.27
2018-05-11T05:13:31.807Z,9.30
2018-05-11T05:16:02.151Z,6.63
2018-05-11T05:18:32.531Z,6.50
2018-05-11T05:21:02.874Z,9.17
2018-05-11T05:23:34.033Z,7.73
2018-05-11T05:26:23.708Z,7.53
2018-05-11T05:28:54.824Z,9.80
2018-05-11T05:31:25.159Z,8.73
2018-05-11T05:33:56.295Z,7.37
2018-05-11T05:36:26.659Z,7.47
2018-05-11T05:38:56.992Z,7.47
2018-05-11T05:41:29.427Z,10.33
2018-05-11T05:44:00.533Z,11.37
2018-05-11T05:46:31.861Z,8.40
2018-05-11T05:49:02.228Z,6.37
2018-05-11T05:51:32.573Z,6.93
2018-05-11T05:54:02.916Z,9.50
2018-05-11T05:56:33.296Z,6.33
2018-05-11T05:59:03.640Z,6.90
2018-05-11T06:01:33.950Z,10.20
2018-05-11T06:04:05.399Z,10.63
2018-05-11T06:06:35.699Z,8.00
2018-05-11T06:09:06.036Z,7.93
2018-05-11T06:11:36.403Z,7.80
2018-05-11T06:14:07.787Z,8.67
2018-05-11T06:16:39.181Z,11.17
2018-05-11T06:19:09.547Z,6.90
2018-05-11T06:21:39.903Z,9.83
2018-05-11T06:24:30.654Z,9.57
2018-05-11T06:27:01.755Z,9.37
2018-05-11T06:29:54.570Z,7.70
2018-05-11T06:32:24.921Z,7.80
2018-05-11T06:37:45.718Z,7.83
2018-05-11T06:40:16.079Z,7.93
2018-05-11T06:43:06.833Z,5.53
2018-05-11T06:45:38.029Z,9.97
2018-05-11T06:48:30.590Z,4.97
2018-05-11T06:51:00.932Z,10.07
2018-05-11T06:53:31.276Z,4.20
2018-05-11T06:56:02.420Z,8.03
2018-05-11T06:58:32.776Z,9.87
2018-05-11T07:01:03.140Z,9.67
2018-05-11T07:03:33.502Z,9.60
2018-05-11T07:06:04.600Z,9.67
2018-05-11T07:08:35.173Z,9.57
2018-05-11T07:11:05.529Z,6.97
2018-05-11T07:13:35.883Z,9.37
2018-05-11T07:16:28.694Z,11.67
2018-05-11T07:18:58.997Z,8.23
2018-05-11T07:21:30.091Z,8.53
2018-05-11T07:24:21.836Z,7.83
2018-05-11T07:26:52.196Z,7.50
2018-05-11T07:29:23.316Z,10.53
2018-05-11T07:31:53.703Z,9.43
2018-05-11T07:34:26.094Z,10.63
2018-05-11T07:36:58.491Z,6.30
2018-05-11T07:39:28.877Z,12.57
2018-05-11T07:41:59.209Z,8.80
2018-05-11T07:44:36.893Z,10.63
2018-05-11T07:47:07.233Z,5.57
2018-05-11T07:49:56.715Z,8.77
2018-05-11T07:52:27.054Z,8.97
2018-05-11T07:54:57.400Z,9.00
2018-05-11T07:57:27.774Z,6.10
2018-05-11T07:59:58.121Z,6.00
2018-05-11T08:02:28.463Z,8.10
2018-05-11T08:04:58.811Z,7.73
2018-05-11T08:07:29.915Z,6.30
2018-05-11T08:10:00.252Z,6.17
2018-05-11T08:12:30.622Z,5.33
2018-05-11T08:15:01.722Z,4.37
2018-05-11T08:17:32.053Z,5.60
2018-05-11T08:20:02.416Z,6.53
2018-05-11T08:22:32.761Z,5.40
2018-05-11T08:25:04.149Z,5.70
2018-05-11T08:27:34.499Z,5.00
2018-05-11T08:30:05.666Z,4.63
2018-05-11T08:32:55.295Z,5.67
2018-05-11T08:35:25.636Z,6.40
2018-05-11T08:37:55.992Z,5.73
2018-05-11T08:40:26.358Z,5.23
2018-05-11T08:42:56.693Z,8.73
2018-05-11T08:45:27.026Z,6.70
2018-05-11T08:47:57.435Z,8.77
2018-05-11T08:50:28.483Z,5.87
2018-05-11T08:52:58.832Z,5.33
2018-05-11T08:55:29.211Z,7.53
2018-05-11T08:58:01.609Z,5.87
2018-05-11T09:00:32.964Z,4.20
2018-05-11T09:03:03.425Z,7.50
2018-05-11T09:05:33.676Z,4.50
2018-05-11T09:08:03.988Z,5.93
2018-05-11T09:10:34.367Z,8.33
2018-05-11T09:13:04.664Z,7.73
2018-05-11T09:15:39.167Z,6.53
2018-05-11T09:18:09.460Z,6.30
2018-05-11T09:20:40.569Z,6.50
2018-05-11T09:23:10.906Z,4.63
2018-05-11T09:25:43.321Z,5.00
2018-05-11T09:28:14.388Z,5.17
2018-05-11T09:30:44.723Z,8.40
2018-05-11T09:33:15.047Z,7.00
2018-05-11T09:35:52.732Z,6.33
2018-05-11T09:38:23.107Z,7.97
2018-05-11T09:40:53.441Z,5.77
2018-05-11T09:43:23.796Z,7.13
2018-05-11T09:45:54.177Z,7.40
2018-05-11T09:48:24.531Z,4.40
2018-05-11T09:50:55.887Z,10.27
2018-05-11T09:53:27.280Z,5.77
2018-05-11T09:55:57.619Z,8.10
2018-05-11T09:58:28.943Z,6.73
2018-05-11T10:01:04.419Z,6.30
2018-05-11T10:03:34.774Z,4.53
2018-05-11T10:06:05.872Z,5.20
2018-05-11T10:08:36.246Z,5.47
2018-05-11T10:11:07.368Z,5.07
2018-05-11T10:13:37.717Z,5.97
2018-05-11T10:16:08.855Z,4.70
2018-05-11T10:18:39.965Z,6.27
2018-05-11T10:21:10.268Z,6.50
2018-05-11T10:24:00.011Z,5.90
2018-05-11T10:26:31.381Z,4.40
2018-05-11T10:29:01.789Z,3.70
2018-05-11T10:31:32.139Z,4.17
2018-05-11T10:34:02.482Z,6.60
2018-05-11T10:36:32.785Z,5.33
2018-05-11T10:39:03.394Z,5.07
2018-05-11T10:41:33.735Z,6.93
2018-05-11T10:44:04.080Z,3.90
2018-05-11T10:46:34.466Z,4.30
2018-05-11T10:51:50.804Z,4.47
2018-05-11T10:54:21.159Z,5.07
2018-05-11T10:57:13.725Z,5.87
2018-05-11T10:59:44.079Z,5.27
2018-05-11T11:02:15.519Z,5.27
2018-05-11T11:04:46.559Z,7.43
2018-05-11T11:07:16.863Z,7.10
2018-05-11T11:09:47.163Z,6.73
2018-05-11T11:12:22.659Z,5.87
2018-05-11T11:14:53.023Z,5.57
2018-05-11T11:17:23.369Z,5.10
2018-05-11T11:20:13.111Z,4.30
2018-05-11T11:22:44.205Z,4.27
2018-05-11T11:25:14.561Z,4.83
2018-05-11T11:27:45.692Z,3.93
2018-05-11T11:30:16.036Z,5.43
2018-05-11T11:32:47.394Z,5.83
2018-05-11T11:35:18.516Z,3.63
2018-05-11T11:37:48.873Z,5.83
2018-05-11T11:40:19.314Z,4.73
2018-05-11T11:43:11.769Z,5.30
2018-05-11T11:45:43.131Z,3.30
2018-05-11T11:48:32.873Z,3.77
2018-05-11T11:51:04.997Z,5.20
2018-05-11T11:53:35.349Z,4.73
2018-05-11T11:56:05.711Z,5.17
2018-05-11T11:58:36.068Z,5.20
2018-05-11T12:01:06.405Z,5.43
2018-05-11T12:03:36.769Z,7.67
2018-05-11T12:06:07.115Z,6.63
2018-05-11T12:08:37.452Z,3.70
2018-05-11T12:11:28.169Z,2.77
2018-05-11T12:13:58.505Z,5.37
2018-05-11T12:16:28.844Z,4.90
2018-05-11T12:18:59.214Z,5.73
2018-05-11T12:21:30.566Z,5.73
2018-05-11T12:24:00.978Z,4.40
2018-05-11T12:26:52.692Z,3.63
2018-05-11T12:29:23.048Z,4.07
2018-05-11T12:31:53.489Z,4.83
2018-05-11T12:34:23.764Z,4.80
2018-05-11T12:36:55.080Z,4.13
2018-05-11T12:39:25.415Z,3.50
2018-05-11T12:41:55.778Z,7.13
2018-05-11T12:44:26.130Z,2.97
2018-05-11T12:46:56.484Z,4.50
2018-05-11T12:49:26.869Z,2.53
2018-05-11T12:51:57.211Z,3.33
2018-05-11T12:54:27.544Z,4.33
2018-05-11T12:57:19.349Z,3.30
2018-05-11T12:59:49.703Z,3.97
2018-05-11T13:02:20.001Z,3.03
2018-05-11T13:04:50.386Z,4.40
2018-05-11T13:07:20.691Z,2.63
2018-05-11T13:09:51.252Z,3.23
2018-05-11T13:12:22.588Z,4.30
2018-05-11T13:14:52.924Z,3.90
2018-05-11T13:17:24.044Z,3.80
2018-05-11T13:19:54.424Z,8.57
2018-05-11T13:22:24.768Z,3.87
2018-05-11T13:25:16.305Z,3.47
2018-05-11T13:27:50.732Z,3.10
2018-05-11T13:30:24.467Z,5.40
2018-05-11T13:32:55.476Z,4.77
2018-05-11T13:35:25.802Z,8.27
2018-05-11T13:37:56.178Z,4.50
2018-05-11T13:40:26.527Z,4.73
2018-05-11T13:43:00.951Z,2.57
2018-05-11T13:45:31.333Z,3.33
2018-05-11T13:48:02.406Z,4.47
2018-05-11T13:50:32.738Z,1.90
2018-05-11T13:53:05.142Z,2.43
2018-05-11T13:55:35.479Z,6.57
2018-05-11T13:58:05.811Z,4.90
2018-05-11T14:00:36.168Z,3.83
2018-05-11T14:03:06.521Z,4.20
2018-05-11T14:05:36.863Z,3.47
2018-05-11T14:08:07.226Z,3.60
2018-05-11T14:10:37.570Z,3.37
2018-05-11T14:13:07.915Z,2.20
2018-05-11T14:15:38.280Z,2.83
2018-05-11T14:18:08.620Z,3.30
2018-05-11T14:20:38.974Z,3.60
2018-05-11T14:23:09.352Z,3.93
2018-05-11T14:25:39.684Z,2.90
2018-05-11T14:28:10.033Z,3.73
2018-05-11T14:30:41.124Z,4.67
2018-05-11T14:33:11.463Z,2.50
2018-05-11T14:35:41.799Z,2.30
2018-05-11T14:38:12.189Z,2.30
2018-05-11T14:40:42.528Z,3.17
2018-05-11T14:43:12.875Z,3.53
2018-05-11T14:45:43.248Z,3.07
2018-05-11T14:48:13.589Z,1.77
2018-05-11T14:50:43.931Z,5.13
2018-05-11T14:53:33.687Z,2.90
2018-05-11T14:56:04.047Z,4.53
2018-05-11T14:58:34.400Z,2.80
2018-05-11T15:03:47.994Z,4.70
2018-05-11T15:06:18.343Z,2.50
2018-05-11T15:09:10.864Z,3.53
2018-05-11T15:11:41.247Z,4.93
2018-05-11T15:14:11.587Z,2.40
2018-05-11T15:16:41.930Z,3.97
2018-05-11T15:19:13.338Z,3.57
2018-05-11T15:21:43.674Z,3.20
2018-05-11T15:24:14.012Z,2.40
2018-05-11T15:26:44.370Z,1.63
2018-05-11T15:29:14.705Z,6.00
2018-05-11T15:31:49.143Z,2.83
2018-05-11T15:34:24.588Z,3.33
2018-05-11T15:37:17.113Z,2.67
2018-05-11T15:39:49.537Z,3.57
2018-05-11T15:42:19.868Z,2.20
2018-05-11T15:44:50.216Z,3.07
2018-05-11T15:47:21.354Z,3.20
2018-05-11T15:49:52.421Z,3.27
2018-05-11T15:52:22.768Z,2.50
2018-05-11T15:54:55.141Z,2.37
2018-05-11T15:57:26.497Z,2.33
2018-05-11T15:59:56.843Z,4.30
2018-05-11T16:02:27.232Z,1.67
2018-05-11T16:04:59.618Z,3.97
2018-05-11T16:07:52.411Z,4.20
2018-05-11T16:10:22.763Z,2.27
2018-05-11T16:12:53.268Z,4.53
2018-05-11T16:15:27.562Z,2.30
2018-05-11T16:17:57.923Z,5.07
2018-05-11T16:20:28.273Z,3.77
2018-05-11T16:22:58.628Z,3.53
2018-05-11T16:25:28.983Z,2.97
2018-05-11T16:28:00.079Z,4.27
2018-05-11T16:30:30.661Z,3.20
2018-05-11T16:33:01.777Z,2.87
2018-05-11T16:35:32.129Z,2.50
2018-05-11T16:38:03.219Z,1.80
2018-05-11T16:40:54.733Z,2.70
2018-05-11T16:43:25.064Z,2.73
2018-05-11T16:45:59.486Z,3.60
2018-05-11T16:48:29.832Z,3.23
2018-05-11T16:51:00.218Z,2.70
2018-05-11T16:53:30.586Z,1.77
2018-05-11T16:56:00.918Z,2.10
2018-05-11T16:58:31.314Z,2.10
2018-05-11T17:01:01.664Z,2.00
2018-05-11T17:03:32.004Z,3.23
2018-05-11T17:06:02.331Z,1.60
2018-05-11T17:08:32.668Z,3.00
2018-05-11T17:11:03.778Z,4.10
2018-05-11T17:13:34.156Z,4.60
2018-05-11T17:16:05.255Z,2.00
2018-05-11T17:18:35.556Z,2.23
2018-05-11T17:21:05.921Z,2.73
2018-05-11T17:23:36.223Z,5.17
2018-05-11T17:26:06.580Z,1.93
2018-05-11T17:28:38.753Z,2.23
2018-05-11T17:31:10.116Z,2.47
2018-05-11T17:33:40.477Z,3.90
2018-05-11T17:36:10.839Z,3.03
2018-05-11T17:38:41.175Z,4.27
2018-05-11T17:41:12.300Z,3.67
2018-05-11T17:43:42.685Z,3.33
2018-05-11T17:46:14.058Z,2.60
2018-05-11T17:48:44.411Z,2.40
2018-05-11T17:51:14.745Z,2.20
2018-05-11T17:53:45.845Z,2.77
2018-05-11T17:56:18.219Z,2.50
2018-05-11T17:58:48.589Z,2.47
2018-05-11T18:01:19.688Z,2.93
2018-05-11T18:03:53.097Z,2.50
2018-05-11T18:06:23.493Z,4.23
2018-05-11T18:08:54.855Z,3.63
2018-05-11T18:11:25.191Z,3.67
2018-05-11T18:13:57.614Z,3.67
2018-05-11T18:16:28.170Z,2.70
2018-05-11T18:18:58.497Z,3.13
2018-05-11T18:21:29.603Z,2.53
2018-05-11T18:24:00.709Z,3.17
2018-05-11T18:26:31.017Z,3.50
2018-05-11T18:29:05.482Z,3.27
2018-05-11T18:31:35.846Z,3.00
2018-05-11T18:34:06.220Z,3.53
2018-05-11T18:36:36.587Z,4.73
2018-05-11T18:39:07.693Z,3.37
2018-05-11T18:41:38.062Z,3.13
2018-05-11T18:44:08.435Z,1.80
2018-05-11T18:46:38.772Z,2.77
2018-05-11T18:49:10.129Z,1.87
2018-05-11T18:51:40.508Z,2.80
2018-05-11T18:54:12.234Z,2.70
2018-05-11T18:57:03.404Z,1.93
2018-05-11T18:59:40.893Z,2.83
2018-05-11T19:02:14.361Z,3.87
2018-05-11T19:04:44.690Z,3.40
2018-05-11T19:07:15.042Z,3.67
2018-05-11T19:09:45.421Z,3.50
2018-05-11T19:12:16.552Z,2.63
2018-05-11T19:14:47.656Z,3.83
2018-05-11T19:20:02.244Z,3.00
2018-05-11T19:22:32.626Z,11.00
2018-05-11T19:25:02.948Z,11.53
2018-05-11T19:27:34.065Z,11.57
2018-05-11T19:30:05.208Z,11.40
2018-05-11T19:32:36.336Z,10.80
2018-05-11T19:35:06.694Z,6.97
2018-05-11T19:37:37.840Z,6.83
2018-05-11T19:40:08.152Z,9.03
2018-05-11T19:42:38.515Z,3.87
2018-05-11T19:45:08.881Z,4.93
2018-05-11T19:47:39.221Z,5.33
2018-05-11T19:50:10.344Z,4.07
2018-05-11T19:52:42.756Z,5.23
2018-05-11T19:55:13.855Z,9.80
2018-05-11T19:57:44.226Z,17.53
2018-05-11T20:00:14.609Z,11.37
2018-05-11T20:02:44.967Z,6.10
2018-05-11T20:05:16.372Z,4.27
2018-05-11T20:08:07.884Z,3.77
2018-05-11T20:10:44.380Z,4.57
2018-05-11T20:13:14.746Z,5.57
2018-05-11T20:15:45.103Z,3.90
2018-05-11T20:18:21.643Z,4.80
2018-05-11T20:20:51.951Z,5.30
2018-05-11T20:23:22.311Z,3.60
2018-05-11T20:25:52.646Z,3.47
2018-05-11T20:28:22.987Z,2.93
2018-05-11T20:31:13.493Z,3.23
2018-05-11T20:33:43.836Z,12.70
2018-05-11T20:36:14.173Z,7.83
2018-05-11T20:38:45.308Z,5.53
2018-05-11T20:41:15.670Z,6.37
2018-05-11T20:43:46.291Z,3.87
2018-05-11T20:46:17.446Z,4.83
2018-05-11T20:48:47.780Z,4.80
2018-05-11T20:51:18.395Z,3.50
2018-05-11T20:53:48.750Z,4.13
2018-05-11T20:56:21.127Z,5.67
2018-05-11T20:58:55.595Z,2.90
2018-05-11T21:01:26.700Z,2.63
2018-05-11T21:04:17.262Z,2.93
2018-05-11T21:07:08.953Z,3.57
2018-05-11T21:09:39.307Z,3.27
2018-05-11T21:12:09.668Z,3.27
2018-05-11T21:14:40.023Z,3.40
2018-05-11T21:17:12.434Z,2.90
2018-05-11T21:19:42.792Z,3.20
2018-05-11T21:22:17.216Z,3.60
2018-05-11T21:24:54.743Z,3.20
2018-05-11T21:27:27.352Z,3.53
2018-05-11T21:29:59.472Z,4.40
2018-05-11T21:32:30.166Z,3.87
2018-05-11T21:35:00.500Z,3.20
2018-05-11T21:37:30.837Z,3.47
2018-05-11T21:40:01.199Z,3.63
2018-05-11T21:42:31.535Z,4.47
2018-05-11T21:45:01.840Z,5.23
2018-05-11T21:47:32.205Z,2.87
2018-05-11T21:50:02.566Z,4.93
2018-05-11T21:52:37.023Z,4.00
2018-05-11T21:55:07.400Z,2.47
2018-05-11T21:57:37.747Z,2.40
2018-05-11T22:00:30.295Z,3.07
2018-05-11T22:03:00.629Z,6.47
2018-05-11T22:05:30.987Z,4.10
2018-05-11T22:08:02.117Z,3.97
2018-05-11T22:10:32.776Z,3.33
2018-05-11T22:13:04.896Z,2.97
2018-05-11T22:15:38.323Z,2.63
2018-05-11T22:18:09.490Z,3.83
2018-05-11T22:20:41.828Z,2.40
2018-05-11T22:23:12.170Z,2.40
2018-05-11T22:25:42.520Z,3.53
2018-05-11T22:28:12.861Z,3.20
2018-05-11T22:30:43.233Z,5.20
2018-05-11T22:33:14.622Z,6.17
2018-05-11T22:35:45.246Z,4.50
2018-05-11T22:38:16.367Z,4.97
2018-05-11T22:40:46.729Z,3.57
2018-05-11T22:43:17.094Z,2.97
2018-05-11T22:45:47.449Z,3.23
2018-05-11T22:48:17.799Z,3.40
2018-05-11T22:50:49.164Z,4.27
2018-05-11T22:53:19.535Z,4.27
2018-05-11T22:55:49.871Z,3.40
2018-05-11T22:58:20.221Z,3.20
2018-05-11T23:00:51.341Z,4.53
2018-05-11T23:03:21.679Z,3.10
2018-05-11T23:05:52.785Z,3.07
2018-05-11T23:08:23.169Z,3.37
2018-05-11T23:10:53.486Z,2.80
2018-05-11T23:13:23.848Z,2.73
2018-05-11T23:16:01.519Z,3.40
2018-05-11T23:18:31.828Z,4.13
2018-05-11T23:21:02.952Z,2.70
2018-05-11T23:23:33.327Z,2.93
2018-05-11T23:26:04.654Z,3.30
2018-05-11T23:31:19.985Z,2.90
2018-05-11T23:33:57.483Z,2.63
2018-05-11T23:36:31.925Z,5.97
2018-05-11T23:39:02.290Z,2.80
2018-05-11T23:41:32.642Z,2.77
2018-05-11T23:44:06.309Z,3.17
2018-05-11T23:46:37.421Z,2.50
2018-05-11T23:49:07.776Z,2.90
2018-05-11T23:51:38.903Z,2.57
2018-05-11T23:54:09.257Z,2.73
2018-05-11T23:56:39.607Z,3.53
2018-05-11T23:59:14.057Z,3.63
